createdAt,value
2024-03-30T00:00:57.926Z,961.13
2024-03-30T00:01:57.914Z,961.14
2024-03-30T00:02:57.918Z,961.16
2024-03-30T00:03:57.937Z,961.11
2024-03-30T00:04:57.943Z,961.07
2024-03-30T00:05:57.981Z,961.09
2024-03-30T00:06:58.114Z,961.07
2024-03-30T00:07:58.044Z,961.03
2024-03-30T00:08:57.994Z,961.07
2024-03-30T00:09:58.056Z,961.03
2024-03-30T00:10:58.076Z,960.99
2024-03-30T00:11:58.076Z,960.99
2024-03-30T00:12:58.082Z,961.01
2024-03-30T00:13:58.081Z,960.95
2024-03-30T00:14:58.104Z,960.86
2024-03-30T00:15:58.143Z,960.90
2024-03-30T00:16:58.122Z,960.90
2024-03-30T00:17:58.134Z,960.88
2024-03-30T00:18:58.158Z,960.91
2024-03-30T00:19:58.229Z,960.89
2024-03-30T00:20:58.220Z,960.91
2024-03-30T00:21:58.196Z,960.91
2024-03-30T00:22:58.209Z,960.97
2024-03-30T00:23:58.230Z,960.95
2024-03-30T00:24:58.340Z,960.92
2024-03-30T00:25:58.271Z,960.89
2024-03-30T00:26:58.302Z,960.91
2024-03-30T00:27:58.292Z,960.95
2024-03-30T00:28:58.294Z,960.96
2024-03-30T00:29:58.353Z,960.97
2024-03-30T00:30:58.325Z,960.93
2024-03-30T00:31:58.344Z,960.93
2024-03-30T00:32:58.357Z,960.92
2024-03-30T00:33:58.368Z,960.95
2024-03-30T00:34:58.430Z,960.95
2024-03-30T00:35:58.418Z,960.84
2024-03-30T00:36:58.414Z,960.82
2024-03-30T00:37:58.438Z,960.89
2024-03-30T00:38:58.479Z,960.86
2024-03-30T00:39:58.494Z,960.82
2024-03-30T00:40:58.510Z,960.92
2024-03-30T00:41:58.500Z,960.91
2024-03-30T00:43:05.380Z,960.93
2024-03-30T00:43:58.520Z,960.94
2024-03-30T00:44:58.569Z,960.98
2024-03-30T00:45:58.550Z,960.96
2024-03-30T00:46:58.565Z,960.94
2024-03-30T00:47:58.625Z,960.96
2024-03-30T00:48:58.600Z,960.93
2024-03-30T00:49:58.631Z,960.92
2024-03-30T00:50:58.631Z,960.92
2024-03-30T00:51:58.636Z,960.89
2024-03-30T00:52:58.650Z,960.90
2024-03-30T00:53:58.809Z,960.92
2024-03-30T00:54:58.709Z,960.95
2024-03-30T00:55:58.689Z,960.88
2024-03-30T00:56:58.709Z,960.86
2024-03-30T00:57:58.733Z,960.85
2024-03-30T00:58:58.779Z,960.87
2024-03-30T00:59:58.754Z,960.85
2024-03-30T01:00:58.762Z,960.82
2024-03-30T01:01:58.758Z,960.78
2024-03-30T01:02:58.813Z,960.79
2024-03-30T01:03:58.829Z,960.76
2024-03-30T01:04:58.817Z,960.79
2024-03-30T01:05:58.831Z,960.73
2024-03-30T01:06:58.850Z,960.71
2024-03-30T01:07:58.862Z,960.66
2024-03-30T01:08:58.938Z,960.62
2024-03-30T01:09:58.895Z,960.69
2024-03-30T01:10:58.911Z,960.67
2024-03-30T01:11:58.927Z,960.65
2024-03-30T01:12:58.954Z,960.66
2024-03-30T01:13:58.994Z,960.62
2024-03-30T01:14:58.979Z,960.58
2024-03-30T01:15:59.002Z,960.56
2024-03-30T01:16:59.003Z,960.59
2024-03-30T01:17:59.036Z,960.56
2024-03-30T01:18:59.065Z,960.62
2024-03-30T01:19:59.047Z,960.64
2024-03-30T01:21:01.800Z,960.60
2024-03-30T01:21:59.080Z,960.64
2024-03-30T01:22:59.091Z,960.60
2024-03-30T01:23:59.129Z,960.58
2024-03-30T01:24:59.118Z,960.70
2024-03-30T01:25:59.127Z,960.64
2024-03-30T01:26:59.157Z,960.63
2024-03-30T01:27:59.193Z,960.57
2024-03-30T01:28:59.216Z,960.55
2024-03-30T01:29:59.225Z,960.49
2024-03-30T01:30:59.232Z,960.52
2024-03-30T01:31:59.234Z,960.52
2024-03-30T01:32:59.284Z,960.58
2024-03-30T01:33:59.244Z,960.56
2024-03-30T01:34:59.262Z,960.59
2024-03-30T01:35:59.293Z,960.57
2024-03-30T01:36:59.311Z,960.54
2024-03-30T01:37:59.366Z,960.51
2024-03-30T01:38:59.320Z,960.49
2024-03-30T01:39:59.339Z,960.51
2024-03-30T01:40:59.375Z,960.54
2024-03-30T01:41:59.376Z,960.53
2024-03-30T01:42:59.401Z,960.47
2024-03-30T01:43:59.384Z,960.43
2024-03-30T01:44:59.411Z,960.42
2024-03-30T01:45:59.410Z,960.47
2024-03-30T01:46:59.466Z,960.47
2024-03-30T01:47:59.469Z,960.47
2024-03-30T01:48:59.492Z,960.54
2024-03-30T01:49:59.453Z,960.43
2024-03-30T01:50:59.474Z,960.39
2024-03-30T01:51:59.521Z,960.46
2024-03-30T01:52:59.532Z,960.42
2024-03-30T01:53:59.513Z,960.44
2024-03-30T01:54:59.525Z,960.51
2024-03-30T01:55:59.529Z,960.51
2024-03-30T01:56:59.563Z,960.47
2024-03-30T01:57:59.610Z,960.40
2024-03-30T01:58:59.583Z,960.40
2024-03-30T01:59:59.595Z,960.36
2024-03-30T02:00:59.627Z,960.42
2024-03-30T02:01:59.633Z,960.48
2024-03-30T02:02:59.689Z,960.50
2024-03-30T02:03:59.666Z,960.39
2024-03-30T02:04:59.694Z,960.43
2024-03-30T02:05:59.698Z,960.44
2024-03-30T02:06:59.770Z,960.36
2024-03-30T02:07:59.754Z,960.38
2024-03-30T02:08:59.744Z,960.36
2024-03-30T02:09:59.767Z,960.38
2024-03-30T02:10:59.770Z,960.34
2024-03-30T02:11:59.805Z,960.36
2024-03-30T02:12:59.788Z,960.27
2024-03-30T02:13:59.804Z,960.25
2024-03-30T02:14:59.816Z,960.14
2024-03-30T02:15:59.827Z,960.15
2024-03-30T02:16:59.874Z,960.20
2024-03-30T02:17:59.868Z,960.20
2024-03-30T02:18:59.876Z,960.18
2024-03-30T02:19:59.929Z,960.19
2024-03-30T02:20:59.929Z,960.12
2024-03-30T02:21:59.959Z,960.05
2024-03-30T02:22:59.959Z,960.06
2024-03-30T02:23:59.958Z,960.11
2024-03-30T02:24:59.967Z,960.05
2024-03-30T02:25:59.963Z,960.05
2024-03-30T02:27:00.057Z,959.99
2024-03-30T02:27:59.987Z,959.93
2024-03-30T02:29:00.000Z,959.78
2024-03-30T02:30:00.065Z,959.72
2024-03-30T02:31:00.039Z,959.66
2024-03-30T02:32:00.089Z,959.58
2024-03-30T02:33:00.126Z,959.55
2024-03-30T02:34:00.100Z,959.55
2024-03-30T02:35:00.146Z,959.45
2024-03-30T02:36:00.124Z,959.40
2024-03-30T02:37:00.175Z,959.41
2024-03-30T02:38:00.158Z,959.47
2024-03-30T02:39:00.188Z,959.56
2024-03-30T02:40:00.204Z,959.55
2024-03-30T02:41:00.241Z,959.54
2024-03-30T02:42:00.221Z,959.54
2024-03-30T02:43:00.216Z,959.48
2024-03-30T02:44:00.216Z,959.44
2024-03-30T02:45:00.257Z,959.48
2024-03-30T02:46:00.304Z,959.50
2024-03-30T02:47:00.276Z,959.51
2024-03-30T02:48:00.287Z,959.53
2024-03-30T02:49:00.301Z,959.56
2024-03-30T02:50:00.317Z,959.59
2024-03-30T02:51:00.375Z,959.62
2024-03-30T02:52:00.331Z,959.67
2024-03-30T02:53:00.350Z,959.78
2024-03-30T02:54:00.364Z,959.81
2024-03-30T02:55:00.392Z,959.81
2024-03-30T02:56:00.427Z,959.82
2024-03-30T02:57:00.420Z,959.80
2024-03-30T02:58:00.420Z,959.71
2024-03-30T02:59:00.446Z,959.66
2024-03-30T03:00:00.497Z,959.68
2024-03-30T03:01:00.507Z,959.71
2024-03-30T03:02:00.497Z,959.73
2024-03-30T03:03:00.606Z,959.69
2024-03-30T03:04:00.505Z,959.72
2024-03-30T03:05:00.581Z,959.71
2024-03-30T03:06:00.561Z,959.74
2024-03-30T03:07:00.562Z,959.72
2024-03-30T03:08:00.598Z,959.78
2024-03-30T03:09:00.611Z,959.77
2024-03-30T03:10:00.678Z,959.81
2024-03-30T03:11:00.648Z,959.81
2024-03-30T03:12:00.656Z,959.82
2024-03-30T03:13:00.638Z,959.87
2024-03-30T03:14:00.641Z,959.84
2024-03-30T03:15:00.702Z,959.85
2024-03-30T03:16:00.689Z,959.89
2024-03-30T03:17:00.702Z,959.87
2024-03-30T03:18:00.692Z,959.86
2024-03-30T03:19:00.717Z,959.84
2024-03-30T03:20:01.145Z,959.83
2024-03-30T03:21:00.776Z,959.81
2024-03-30T03:22:00.765Z,959.81
2024-03-30T03:23:00.844Z,959.78
2024-03-30T03:24:00.800Z,959.86
2024-03-30T03:25:00.834Z,959.85
2024-03-30T03:26:00.811Z,959.78
2024-03-30T03:27:00.825Z,959.76
2024-03-30T03:28:00.837Z,959.70
2024-03-30T03:29:00.886Z,959.58
2024-03-30T03:30:00.924Z,959.68
2024-03-30T03:31:00.887Z,959.68
2024-03-30T03:32:00.899Z,959.69
2024-03-30T03:33:00.932Z,959.71
2024-03-30T03:34:00.962Z,959.70
2024-03-30T03:35:01.003Z,959.71
2024-03-30T03:36:00.983Z,959.65
2024-03-30T03:37:00.981Z,959.69
2024-03-30T03:38:00.985Z,959.62
2024-03-30T03:39:01.038Z,959.68
2024-03-30T03:40:01.040Z,959.65
2024-03-30T03:41:01.030Z,959.68
2024-03-30T03:42:01.030Z,959.65
2024-03-30T03:43:01.053Z,959.65
2024-03-30T03:44:01.092Z,959.66
2024-03-30T03:45:01.066Z,959.67
2024-03-30T03:46:01.079Z,959.74
2024-03-30T03:47:01.119Z,959.75
2024-03-30T03:48:01.104Z,959.76
2024-03-30T03:49:01.170Z,959.72
2024-03-30T03:50:01.156Z,959.66
2024-03-30T03:51:01.168Z,959.77
2024-03-30T03:52:01.215Z,959.77
2024-03-30T03:53:01.172Z,959.76
2024-03-30T03:54:01.263Z,959.72
2024-03-30T03:55:01.226Z,959.73
2024-03-30T03:56:01.230Z,959.80
2024-03-30T03:57:01.232Z,959.78
2024-03-30T03:58:01.241Z,959.78
2024-03-30T03:59:01.287Z,959.77
2024-03-30T04:00:01.279Z,959.80
2024-03-30T04:01:01.320Z,959.82
2024-03-30T04:02:01.308Z,959.86
2024-03-30T04:03:01.385Z,959.89
2024-03-30T04:04:01.374Z,959.93
2024-03-30T04:05:01.353Z,959.94
2024-03-30T04:06:01.393Z,959.96
2024-03-30T04:07:01.399Z,959.95
2024-03-30T04:08:01.434Z,959.97
2024-03-30T04:09:01.461Z,959.96
2024-03-30T04:10:01.461Z,959.99
2024-03-30T04:11:01.470Z,959.94
2024-03-30T04:12:01.513Z,959.97
2024-03-30T04:13:01.478Z,959.97
2024-03-30T04:14:01.540Z,960.02
2024-03-30T04:15:01.519Z,959.98
2024-03-30T04:16:01.539Z,960.00
2024-03-30T04:17:01.559Z,960.00
2024-03-30T04:18:01.589Z,960.00
2024-03-30T04:19:01.643Z,960.00
2024-03-30T04:20:01.634Z,959.97
2024-03-30T04:21:01.640Z,959.96
2024-03-30T04:22:01.664Z,959.93
2024-03-30T04:23:01.705Z,959.87
2024-03-30T04:24:01.751Z,959.84
2024-03-30T04:25:01.725Z,959.89
2024-03-30T04:26:01.738Z,959.82
2024-03-30T04:27:01.730Z,959.73
2024-03-30T04:28:01.796Z,959.85
2024-03-30T04:29:01.770Z,959.80
2024-03-30T04:30:01.813Z,959.80
2024-03-30T04:31:01.802Z,959.74
2024-03-30T04:32:01.801Z,959.68
2024-03-30T04:33:02.667Z,959.69
2024-03-30T04:34:01.842Z,959.70
2024-03-30T04:35:01.830Z,959.69
2024-03-30T04:36:01.881Z,959.77
2024-03-30T04:37:01.872Z,959.75
2024-03-30T04:38:01.950Z,959.78
2024-03-30T04:39:01.910Z,959.74
2024-03-30T04:40:01.944Z,959.72
2024-03-30T04:41:01.938Z,959.71
2024-03-30T04:42:01.955Z,959.72
2024-03-30T04:43:02.030Z,959.79
2024-03-30T04:44:01.973Z,959.75
2024-03-30T04:45:02.027Z,959.77
2024-03-30T04:46:02.010Z,959.76
2024-03-30T04:47:02.049Z,959.72
2024-03-30T04:48:02.115Z,959.71
2024-03-30T04:49:02.057Z,959.73
2024-03-30T04:50:02.078Z,959.73
2024-03-30T04:51:02.095Z,959.76
2024-03-30T04:52:02.112Z,959.82
2024-03-30T04:53:02.209Z,959.80
2024-03-30T04:54:02.171Z,959.81
2024-03-30T04:55:02.197Z,959.80
2024-03-30T04:56:02.192Z,959.75
2024-03-30T04:57:02.258Z,959.75
2024-03-30T04:58:02.281Z,959.78
2024-03-30T04:59:02.232Z,959.75
2024-03-30T05:00:02.257Z,959.73
2024-03-30T05:01:02.276Z,959.80
2024-03-30T05:02:02.293Z,959.73
2024-03-30T05:03:02.396Z,959.75
2024-03-30T05:04:02.328Z,959.72
2024-03-30T05:05:02.358Z,959.71
2024-03-30T05:06:02.378Z,959.69
2024-03-30T05:07:02.384Z,959.71
2024-03-30T05:08:02.445Z,959.60
2024-03-30T05:09:02.431Z,959.65
2024-03-30T05:10:02.487Z,959.63
2024-03-30T05:11:02.475Z,959.68
2024-03-30T05:12:02.507Z,959.69
2024-03-30T05:13:02.531Z,959.68
2024-03-30T05:14:02.495Z,959.65
2024-03-30T05:15:02.507Z,959.66
2024-03-30T05:16:02.559Z,959.60
2024-03-30T05:17:02.557Z,959.54
2024-03-30T05:18:02.594Z,959.54
2024-03-30T05:19:02.592Z,959.58
2024-03-30T05:20:02.614Z,959.51
2024-03-30T05:21:02.628Z,959.54
2024-03-30T05:22:02.641Z,959.50
2024-03-30T05:23:02.664Z,959.48
2024-03-30T05:24:02.654Z,959.46
2024-03-30T05:25:02.674Z,959.40
2024-03-30T05:26:02.684Z,959.40
2024-03-30T05:27:02.713Z,959.42
2024-03-30T05:28:02.761Z,959.40
2024-03-30T05:29:02.728Z,959.37
2024-03-30T05:30:02.787Z,959.39
2024-03-30T05:31:02.757Z,959.37
2024-03-30T05:32:02.825Z,959.33
2024-03-30T05:33:02.864Z,959.33
2024-03-30T05:34:02.815Z,959.29
2024-03-30T05:35:02.839Z,959.27
2024-03-30T05:36:02.898Z,959.27
2024-03-30T05:37:02.875Z,959.24
2024-03-30T05:38:02.876Z,959.24
2024-03-30T05:39:02.901Z,959.24
2024-03-30T05:40:02.884Z,959.23
2024-03-30T05:41:02.906Z,959.22
2024-03-30T05:42:03.009Z,959.26
2024-03-30T05:43:02.945Z,959.20
2024-03-30T05:44:02.971Z,959.14
2024-03-30T05:45:03.011Z,959.12
2024-03-30T05:46:03.001Z,959.17
2024-03-30T05:47:03.040Z,959.11
2024-03-30T05:48:03.071Z,959.16
2024-03-30T05:49:03.044Z,959.19
2024-03-30T05:50:03.098Z,959.21
2024-03-30T05:51:03.075Z,959.17
2024-03-30T05:52:03.133Z,959.16
2024-03-30T05:53:03.182Z,959.10
2024-03-30T05:54:03.144Z,959.08
2024-03-30T05:55:03.130Z,959.05
2024-03-30T05:56:03.149Z,959.11
2024-03-30T05:57:03.228Z,959.13
2024-03-30T05:58:03.193Z,959.11
2024-03-30T05:59:03.192Z,959.13
2024-03-30T06:00:03.259Z,959.12
2024-03-30T06:01:03.243Z,959.10
2024-03-30T06:02:03.278Z,959.07
2024-03-30T06:03:03.298Z,959.06
2024-03-30T06:04:03.288Z,959.07
2024-03-30T06:05:03.289Z,959.07
2024-03-30T06:06:03.314Z,959.07
2024-03-30T06:07:03.362Z,959.00
2024-03-30T06:08:03.378Z,959.04
2024-03-30T06:09:03.393Z,959.05
2024-03-30T06:10:03.404Z,959.08
2024-03-30T06:11:03.406Z,959.07
2024-03-30T06:12:03.553Z,959.10
2024-03-30T06:13:03.454Z,959.08
2024-03-30T06:14:03.459Z,959.07
2024-03-30T06:15:03.543Z,959.05
2024-03-30T06:16:03.490Z,958.95
2024-03-30T06:17:03.520Z,958.92
2024-03-30T06:18:03.510Z,958.87
2024-03-30T06:19:03.506Z,958.82
2024-03-30T06:20:03.540Z,958.88
2024-03-30T06:21:03.595Z,958.91
2024-03-30T06:22:03.599Z,958.92
2024-03-30T06:23:03.581Z,958.97
2024-03-30T06:24:03.623Z,958.95
2024-03-30T06:25:03.631Z,958.92
2024-03-30T06:26:03.727Z,958.92
2024-03-30T06:27:03.698Z,958.95
2024-03-30T06:28:03.651Z,958.97
2024-03-30T06:29:03.678Z,958.95
2024-03-30T06:30:03.712Z,958.98
2024-03-30T06:31:03.735Z,959.07
2024-03-30T06:32:03.714Z,959.08
2024-03-30T06:33:03.738Z,959.07
2024-03-30T06:34:03.747Z,959.12
2024-03-30T06:35:03.745Z,959.06
2024-03-30T06:36:03.836Z,959.05
2024-03-30T06:37:03.785Z,959.01
2024-03-30T06:38:03.823Z,958.98
2024-03-30T06:39:03.861Z,958.99
2024-03-30T06:40:03.854Z,959.00
2024-03-30T06:41:03.916Z,958.87
2024-03-30T06:42:03.898Z,958.95
2024-03-30T06:43:03.889Z,958.92
2024-03-30T06:44:03.906Z,958.92
2024-03-30T06:45:04.017Z,958.91
2024-03-30T06:46:04.000Z,958.98
2024-03-30T06:47:03.950Z,958.95
2024-03-30T06:48:03.988Z,958.91
2024-03-30T06:49:03.986Z,958.98
2024-03-30T06:50:04.002Z,958.96
2024-03-30T06:51:04.106Z,959.01
2024-03-30T06:52:04.031Z,958.99
2024-03-30T06:53:04.060Z,959.01
2024-03-30T06:54:04.086Z,959.03
2024-03-30T06:55:04.078Z,959.01
2024-03-30T06:56:04.147Z,958.98
2024-03-30T06:57:04.142Z,958.96
2024-03-30T06:58:04.124Z,958.93
2024-03-30T06:59:04.160Z,958.96
2024-03-30T07:00:04.183Z,959.00
2024-03-30T07:01:04.203Z,959.06
2024-03-30T07:02:04.209Z,959.05
2024-03-30T07:03:04.239Z,959.02
2024-03-30T07:04:04.215Z,959.11
2024-03-30T07:05:04.230Z,959.04
2024-03-30T07:06:04.311Z,959.05
2024-03-30T07:07:04.260Z,959.01
2024-03-30T07:08:04.281Z,959.02
2024-03-30T07:09:04.310Z,959.01
2024-03-30T07:10:04.307Z,958.96
2024-03-30T07:11:04.336Z,959.01
2024-03-30T07:12:04.422Z,958.95
2024-03-30T07:13:04.335Z,958.95
2024-03-30T07:14:04.354Z,958.97
2024-03-30T07:15:04.415Z,958.97
2024-03-30T07:16:04.421Z,959.00
2024-03-30T07:17:14.208Z,959.01
2024-03-30T07:18:04.699Z,959.02
2024-03-30T07:19:04.421Z,958.99
2024-03-30T07:20:04.511Z,959.03
2024-03-30T07:21:04.513Z,959.02
2024-03-30T07:22:04.469Z,959.01
2024-03-30T07:23:04.479Z,959.01
2024-03-30T07:24:04.518Z,958.97
2024-03-30T07:25:04.540Z,959.05
2024-03-30T07:26:04.533Z,959.02
2024-03-30T07:27:04.604Z,959.05
2024-03-30T07:28:04.559Z,959.02
2024-03-30T07:29:04.564Z,959.03
2024-03-30T07:30:04.683Z,959.03
2024-03-30T07:31:04.597Z,959.01
2024-03-30T07:32:04.641Z,959.05
2024-03-30T07:33:04.724Z,959.12
2024-03-30T07:34:04.663Z,959.05
2024-03-30T07:35:04.688Z,959.08
2024-03-30T07:36:04.739Z,959.08
2024-03-30T07:37:04.707Z,959.08
2024-03-30T07:38:04.714Z,959.06
2024-03-30T07:39:04.748Z,959.10
2024-03-30T07:40:04.771Z,959.09
2024-03-30T07:41:04.748Z,959.07
2024-03-30T07:42:04.794Z,959.05
2024-03-30T07:43:04.775Z,959.12
2024-03-30T07:44:04.818Z,959.17
2024-03-30T07:45:04.894Z,959.13
2024-03-30T07:46:04.861Z,959.18
2024-03-30T07:47:04.857Z,959.19
2024-03-30T07:48:04.940Z,959.13
2024-03-30T07:49:04.882Z,959.17
2024-03-30T07:50:04.933Z,959.14
2024-03-30T07:51:04.940Z,959.07
2024-03-30T07:52:04.936Z,959.13
2024-03-30T07:53:04.952Z,959.01
2024-03-30T07:54:04.992Z,959.05
2024-03-30T07:55:05.044Z,958.96
2024-03-30T07:56:05.124Z,958.99
2024-03-30T07:57:05.248Z,958.96
2024-03-30T07:58:05.021Z,958.90
2024-03-30T07:59:05.206Z,958.91
2024-03-30T08:00:05.119Z,958.93
2024-03-30T08:01:05.093Z,958.99
2024-03-30T08:02:05.065Z,959.06
2024-03-30T08:03:05.092Z,959.09
2024-03-30T08:04:05.150Z,959.13
2024-03-30T08:05:06.591Z,959.14
2024-03-30T08:06:05.176Z,959.16
2024-03-30T08:07:05.132Z,959.17
2024-03-30T08:08:05.159Z,959.21
2024-03-30T08:09:05.246Z,959.28
2024-03-30T08:10:05.192Z,959.27
2024-03-30T08:11:05.202Z,959.30
2024-03-30T08:12:05.264Z,959.34
2024-03-30T08:13:05.246Z,959.29
2024-03-30T08:14:05.301Z,959.29
2024-03-30T08:15:05.308Z,959.32
2024-03-30T08:16:05.305Z,959.37
2024-03-30T08:17:05.321Z,959.32
2024-03-30T08:18:05.373Z,959.29
2024-03-30T08:19:05.358Z,959.30
2024-03-30T08:20:05.344Z,959.37
2024-03-30T08:21:05.381Z,959.42
2024-03-30T08:22:05.376Z,959.42
2024-03-30T08:23:05.383Z,959.44
2024-03-30T08:24:05.487Z,959.43
2024-03-30T08:25:05.450Z,959.40
2024-03-30T08:26:05.425Z,959.41
2024-03-30T08:27:05.524Z,959.40
2024-03-30T08:28:05.500Z,959.45
2024-03-30T08:29:05.524Z,959.47
2024-03-30T08:30:09.893Z,959.47
2024-03-30T08:31:05.489Z,959.51
2024-03-30T08:32:05.509Z,959.54
2024-03-30T08:33:05.565Z,959.48
2024-03-30T08:34:05.549Z,959.50
2024-03-30T08:35:05.523Z,959.52
2024-03-30T08:36:05.563Z,959.49
2024-03-30T08:37:05.552Z,959.55
2024-03-30T08:38:05.571Z,959.54
2024-03-30T08:39:05.660Z,959.52
2024-03-30T08:40:05.618Z,959.59
2024-03-30T08:41:05.663Z,959.61
2024-03-30T08:42:05.727Z,959.68
2024-03-30T08:43:05.662Z,959.68
2024-03-30T08:44:05.717Z,959.63
2024-03-30T08:45:05.714Z,959.67
2024-03-30T08:46:05.702Z,959.64
2024-03-30T08:47:05.724Z,959.65
2024-03-30T08:48:05.799Z,959.67
2024-03-30T08:49:05.782Z,959.65
2024-03-30T08:50:05.763Z,959.62
2024-03-30T08:51:05.802Z,959.63
2024-03-30T08:52:05.847Z,959.63
2024-03-30T08:53:05.936Z,959.57
2024-03-30T08:54:05.861Z,959.60
2024-03-30T08:55:05.882Z,959.55
2024-03-30T08:56:05.862Z,959.54
2024-03-30T08:57:05.913Z,959.57
2024-03-30T08:58:05.934Z,959.53
2024-03-30T08:59:05.908Z,959.53
2024-03-30T09:00:05.941Z,959.49
2024-03-30T09:01:05.946Z,959.51
2024-03-30T09:02:05.970Z,959.52
2024-03-30T09:03:06.030Z,959.54
2024-03-30T09:04:05.977Z,959.55
2024-03-30T09:05:06.009Z,959.53
2024-03-30T09:06:06.009Z,959.53
2024-03-30T09:07:06.014Z,959.53
2024-03-30T09:08:06.071Z,959.54
2024-03-30T09:09:06.087Z,959.62
2024-03-30T09:10:06.046Z,959.62
2024-03-30T09:11:06.066Z,959.61
2024-03-30T09:12:06.103Z,959.69
2024-03-30T09:13:06.124Z,959.78
2024-03-30T09:14:06.115Z,959.75
2024-03-30T09:15:06.141Z,959.74
2024-03-30T09:16:06.172Z,959.71
2024-03-30T09:17:06.155Z,959.71
2024-03-30T09:18:06.196Z,959.75
2024-03-30T09:19:06.194Z,959.75
2024-03-30T09:20:06.216Z,959.79
2024-03-30T09:21:06.275Z,959.83
2024-03-30T09:22:06.271Z,959.85
2024-03-30T09:23:06.283Z,959.84
2024-03-30T09:24:06.259Z,959.85
2024-03-30T09:25:06.291Z,959.87
2024-03-30T09:26:06.283Z,959.87
2024-03-30T09:27:06.368Z,959.91
2024-03-30T09:28:06.302Z,959.94
2024-03-30T09:29:06.319Z,959.91
2024-03-30T09:30:06.379Z,959.99
2024-03-30T09:31:06.372Z,960.00
2024-03-30T09:32:06.411Z,959.97
2024-03-30T09:33:06.396Z,960.00
2024-03-30T09:34:06.390Z,959.95
2024-03-30T09:35:06.419Z,959.99
2024-03-30T09:36:06.436Z,959.94
2024-03-30T09:37:06.472Z,960.00
2024-03-30T09:38:06.455Z,960.06
2024-03-30T09:39:06.482Z,960.05
2024-03-30T09:40:06.469Z,960.10
2024-03-30T09:41:06.498Z,960.06
2024-03-30T09:42:06.670Z,960.04
2024-03-30T09:43:06.528Z,960.07
2024-03-30T09:44:06.560Z,960.07
2024-03-30T09:45:06.584Z,960.06
2024-03-30T09:46:06.616Z,960.06
2024-03-30T09:47:06.638Z,960.06
2024-03-30T09:48:06.622Z,960.08
2024-03-30T09:49:06.626Z,960.03
2024-03-30T09:50:06.642Z,960.04
2024-03-30T09:51:06.682Z,960.05
2024-03-30T09:52:06.690Z,960.04
2024-03-30T09:53:06.669Z,960.05
2024-03-30T09:54:06.741Z,960.04
2024-03-30T09:55:06.709Z,960.06
2024-03-30T09:56:06.735Z,960.04
2024-03-30T09:57:06.804Z,960.06
2024-03-30T09:58:06.738Z,960.06
2024-03-30T09:59:06.754Z,960.05
2024-03-30T10:00:06.800Z,960.03
2024-03-30T10:01:06.799Z,960.01
2024-03-30T10:02:06.842Z,960.02
2024-03-30T10:03:06.833Z,959.99
2024-03-30T10:04:06.841Z,959.99
2024-03-30T10:05:06.843Z,960.03
2024-03-30T10:06:06.872Z,960.07
2024-03-30T10:07:06.917Z,960.07
2024-03-30T10:08:06.891Z,960.12
2024-03-30T10:09:06.926Z,960.09
2024-03-30T10:10:06.936Z,960.15
2024-03-30T10:11:07.790Z,960.13
2024-03-30T10:12:06.986Z,960.18
2024-03-30T10:13:06.964Z,960.18
2024-03-30T10:14:07.697Z,960.18
2024-03-30T10:15:07.022Z,960.21
2024-03-30T10:16:07.005Z,960.17
2024-03-30T10:17:07.046Z,960.22
2024-03-30T10:18:07.032Z,960.22
2024-03-30T10:19:07.043Z,960.21
2024-03-30T10:20:07.060Z,960.21
2024-03-30T10:21:07.209Z,960.23
2024-03-30T10:22:07.123Z,960.18
2024-03-30T10:23:07.112Z,960.18
2024-03-30T10:24:07.120Z,960.20
2024-03-30T10:25:07.177Z,960.20
2024-03-30T10:26:07.187Z,960.20
2024-03-30T10:27:07.231Z,960.25
2024-03-30T10:28:07.186Z,960.28
2024-03-30T10:29:07.205Z,960.33
2024-03-30T10:30:07.251Z,960.30
2024-03-30T10:31:07.258Z,960.31
2024-03-30T10:32:08.849Z,960.29
2024-03-30T10:33:07.257Z,960.33
2024-03-30T10:34:07.277Z,960.24
2024-03-30T10:35:07.296Z,960.25
2024-03-30T10:36:07.315Z,960.23
2024-03-30T10:37:07.371Z,960.23
2024-03-30T10:38:08.963Z,960.15
2024-03-30T10:39:07.362Z,960.20
2024-03-30T10:40:07.357Z,960.16
2024-03-30T10:41:07.406Z,960.16
2024-03-30T10:42:07.427Z,960.17
2024-03-30T10:43:07.403Z,960.11
2024-03-30T10:44:07.410Z,960.14
2024-03-30T10:45:07.509Z,960.15
2024-03-30T10:46:07.642Z,960.12
2024-03-30T10:47:07.553Z,960.15
2024-03-30T10:48:07.598Z,960.08
2024-03-30T10:49:07.522Z,960.08
2024-03-30T10:50:07.676Z,960.08
2024-03-30T10:51:07.742Z,960.04
2024-03-30T10:52:07.668Z,960.07
2024-03-30T10:53:07.614Z,960.09
2024-03-30T10:54:07.791Z,960.13
2024-03-30T10:55:07.701Z,960.12
2024-03-30T10:56:07.750Z,960.14
2024-03-30T10:57:07.758Z,960.24
2024-03-30T10:58:07.625Z,960.34
2024-03-30T10:59:07.641Z,960.58
2024-03-30T11:00:07.683Z,960.59
2024-03-30T11:01:07.708Z,960.73
2024-03-30T11:02:07.683Z,960.62
2024-03-30T11:03:07.755Z,960.73
2024-03-30T11:04:07.699Z,960.88
2024-03-30T11:05:07.716Z,960.92
2024-03-30T11:06:07.781Z,960.89
2024-03-30T11:07:07.767Z,960.87
2024-03-30T11:08:07.769Z,960.97
2024-03-30T11:09:07.825Z,961.04
2024-03-30T11:10:07.794Z,961.06
2024-03-30T11:11:07.852Z,961.03
2024-03-30T11:12:07.841Z,960.96
2024-03-30T11:13:09.542Z,961.02
2024-03-30T11:14:07.857Z,961.04
2024-03-30T11:15:07.931Z,961.10
2024-03-30T11:16:07.935Z,961.10
2024-03-30T11:17:07.896Z,961.11
2024-03-30T11:18:07.922Z,961.18
2024-03-30T11:19:08.459Z,961.21
2024-03-30T11:20:07.986Z,961.30
2024-03-30T11:21:07.988Z,961.25
2024-03-30T11:22:07.988Z,961.27
2024-03-30T11:23:08.008Z,961.20
2024-03-30T11:24:08.042Z,961.22
2024-03-30T11:25:08.077Z,961.25
2024-03-30T11:26:08.057Z,961.31
2024-03-30T11:27:08.060Z,961.25
2024-03-30T11:28:08.073Z,961.20
2024-03-30T11:29:08.081Z,961.17
2024-03-30T11:30:08.184Z,961.15
2024-03-30T11:31:08.116Z,961.10
2024-03-30T11:32:08.122Z,961.12
2024-03-30T11:33:08.133Z,961.15
2024-03-30T11:34:08.167Z,961.08
2024-03-30T11:35:08.678Z,961.15
2024-03-30T11:36:08.181Z,961.07
2024-03-30T11:37:08.222Z,961.11
2024-03-30T11:38:08.201Z,961.05
2024-03-30T11:39:08.353Z,960.99
2024-03-30T11:40:08.273Z,960.98
2024-03-30T11:41:08.292Z,960.98
2024-03-30T11:42:08.337Z,960.95
2024-03-30T11:43:08.461Z,961.00
2024-03-30T11:44:08.345Z,961.02
2024-03-30T11:45:08.541Z,961.02
2024-03-30T11:46:08.364Z,961.04
2024-03-30T11:47:08.377Z,961.02
2024-03-30T11:48:08.402Z,961.04
2024-03-30T11:49:08.426Z,961.05
2024-03-30T11:50:08.474Z,961.05
2024-03-30T11:51:08.457Z,961.00
2024-03-30T11:52:08.440Z,961.01
2024-03-30T11:53:08.929Z,961.05
2024-03-30T11:54:08.534Z,961.04
2024-03-30T11:55:08.521Z,961.06
2024-03-30T11:56:08.528Z,961.05
2024-03-30T11:57:16.712Z,961.07
2024-03-30T11:58:08.537Z,961.08
2024-03-30T11:59:08.552Z,961.09
2024-03-30T12:00:08.612Z,961.09
2024-03-30T12:01:08.576Z,960.97
2024-03-30T12:02:08.595Z,960.99
2024-03-30T12:03:08.612Z,960.98
2024-03-30T12:04:08.625Z,960.96
2024-03-30T12:05:08.666Z,960.94
2024-03-30T12:06:08.644Z,960.94
2024-03-30T12:07:08.660Z,960.94
2024-03-30T12:08:08.671Z,960.91
2024-03-30T12:09:08.702Z,960.92
2024-03-30T12:10:08.738Z,960.93
2024-03-30T12:11:08.720Z,960.87
2024-03-30T12:12:08.743Z,960.91
2024-03-30T12:13:08.746Z,960.89
2024-03-30T12:14:08.759Z,960.88
2024-03-30T12:15:08.825Z,960.85
2024-03-30T12:16:08.791Z,960.83
2024-03-30T12:17:08.809Z,960.77
2024-03-30T12:18:08.855Z,960.77
2024-03-30T12:19:08.845Z,960.68
2024-03-30T12:20:08.902Z,960.68
2024-03-30T12:21:08.862Z,960.71
2024-03-30T12:22:08.905Z,960.68
2024-03-30T12:23:08.909Z,960.71
2024-03-30T12:24:08.966Z,960.72
2024-03-30T12:25:08.971Z,960.76
2024-03-30T12:26:08.930Z,960.72
2024-03-30T12:27:08.993Z,960.74
2024-03-30T12:28:08.984Z,960.77
2024-03-30T12:29:09.030Z,960.84